createdAt,value
2018-09-17T00:02:17.543Z,15.50
2018-09-17T00:04:45.786Z,15.50
2018-09-17T00:07:13.990Z,15.50
2018-09-17T00:09:42.233Z,15.40
2018-09-17T00:12:10.443Z,15.40
2018-09-17T00:14:38.621Z,15.40
2018-09-17T00:17:06.812Z,15.40
2018-09-17T00:19:35.149Z,15.30
2018-09-17T00:22:03.334Z,15.30
2018-09-17T00:24:31.529Z,15.20
2018-09-17T00:26:59.734Z,15.20
2018-09-17T00:29:27.937Z,15.20
2018-09-17T00:31:56.150Z,15.10
2018-09-17T00:34:24.332Z,15.00
2018-09-17T00:36:52.522Z,15.00
2018-09-17T00:39:20.711Z,15.00
2018-09-17T00:41:48.930Z,15.00
2018-09-17T00:44:17.173Z,15.00
2018-09-17T00:46:45.342Z,15.00
2018-09-17T00:49:13.549Z,14.90
2018-09-17T00:51:41.742Z,14.90
2018-09-17T00:54:09.957Z,14.80
2018-09-17T00:56:38.123Z,14.80
2018-09-17T00:59:06.626Z,14.70
2018-09-17T01:01:34.823Z,14.70
2018-09-17T01:04:03.051Z,14.70
2018-09-17T01:06:31.241Z,14.70
2018-09-17T01:08:59.443Z,14.70
2018-09-17T01:11:27.635Z,14.60
2018-09-17T01:13:55.871Z,14.60
2018-09-17T01:16:24.055Z,14.60
2018-09-17T01:18:52.282Z,14.50
2018-09-17T01:21:20.455Z,14.50
2018-09-17T01:23:48.643Z,14.40
2018-09-17T01:26:16.803Z,14.40
2018-09-17T01:28:45.006Z,14.40
2018-09-17T01:31:13.201Z,14.50
2018-09-17T01:33:41.419Z,14.40
2018-09-17T01:36:09.611Z,14.50
2018-09-17T01:38:37.834Z,14.50
2018-09-17T01:41:06.008Z,14.40
2018-09-17T01:43:34.207Z,14.40
2018-09-17T01:46:02.430Z,14.40
2018-09-17T01:48:30.617Z,14.40
2018-09-17T01:50:58.815Z,14.40
2018-09-17T01:53:27.033Z,14.30
2018-09-17T01:55:55.275Z,14.30
2018-09-17T01:58:23.487Z,14.20
2018-09-17T02:00:51.706Z,14.20
2018-09-17T02:03:20.038Z,14.20
2018-09-17T02:05:48.249Z,14.20
2018-09-17T02:08:16.506Z,14.20
2018-09-17T02:10:44.691Z,14.10
2018-09-17T02:13:12.973Z,14.10
2018-09-17T02:15:41.167Z,14.10
2018-09-17T02:18:09.402Z,14.10
2018-09-17T02:20:37.835Z,14.10
2018-09-17T02:23:06.423Z,14.10
2018-09-17T02:25:34.623Z,14.10
2018-09-17T02:28:02.834Z,14.00
2018-09-17T02:30:31.005Z,14.00
2018-09-17T02:32:59.283Z,14.00
2018-09-17T02:35:27.487Z,14.00
2018-09-17T02:37:55.790Z,14.00
2018-09-17T02:40:23.991Z,14.00
2018-09-17T02:42:52.185Z,13.90
2018-09-17T02:45:21.026Z,13.90
2018-09-17T02:47:49.244Z,13.80
2018-09-17T02:50:17.468Z,13.80
2018-09-17T02:52:45.674Z,13.80
2018-09-17T02:55:13.867Z,13.80
2018-09-17T02:57:42.071Z,13.80
2018-09-17T03:00:10.762Z,13.70
2018-09-17T03:02:39.249Z,13.60
2018-09-17T03:05:07.859Z,13.50
2018-09-17T03:07:36.047Z,13.50
2018-09-17T03:10:04.277Z,13.50
2018-09-17T03:12:33.304Z,13.40
2018-09-17T03:15:12.769Z,13.40
2018-09-17T03:17:40.985Z,13.40
2018-09-17T03:20:09.202Z,13.40
2018-09-17T03:22:37.388Z,13.40
2018-09-17T03:25:05.619Z,13.40
2018-09-17T03:27:33.827Z,13.40
2018-09-17T03:30:03.059Z,13.30
2018-09-17T03:32:31.260Z,13.20
2018-09-17T03:34:59.427Z,13.20
2018-09-17T03:37:28.484Z,13.20
2018-09-17T03:39:58.438Z,13.20
2018-09-17T03:42:27.030Z,13.20
2018-09-17T03:44:55.750Z,13.20
2018-09-17T03:47:24.007Z,13.20
2018-09-17T03:49:52.250Z,13.20
2018-09-17T03:52:20.483Z,13.20
2018-09-17T03:54:48.773Z,13.20
2018-09-17T03:57:17.169Z,13.20
2018-09-17T03:59:45.346Z,13.10
2018-09-17T04:02:13.577Z,13.10
2018-09-17T04:04:41.785Z,13.10
2018-09-17T04:07:10.519Z,13.10
2018-09-17T04:09:38.693Z,13.10
2018-09-17T04:12:06.879Z,13.00
2018-09-17T04:14:35.107Z,13.00
2018-09-17T04:17:03.331Z,13.00
2018-09-17T04:19:31.518Z,12.90
2018-09-17T04:21:59.686Z,12.90
2018-09-17T04:24:27.904Z,12.90
2018-09-17T04:26:56.123Z,12.80
2018-09-17T04:29:24.333Z,12.80
2018-09-17T04:31:52.544Z,12.80
2018-09-17T04:34:20.725Z,12.80
2018-09-17T04:36:48.957Z,12.80
2018-09-17T04:39:19.009Z,12.80
2018-09-17T04:41:47.154Z,12.80
2018-09-17T04:44:15.365Z,12.80
2018-09-17T04:46:43.555Z,12.80
2018-09-17T04:49:11.736Z,12.80
2018-09-17T04:51:39.924Z,12.80
2018-09-17T04:54:08.122Z,12.80
2018-09-17T04:56:36.295Z,12.80
2018-09-17T04:59:04.461Z,12.80
2018-09-17T05:01:32.626Z,12.70
2018-09-17T05:04:00.820Z,12.70
2018-09-17T05:06:29.015Z,12.60
2018-09-17T05:08:57.235Z,12.60
2018-09-17T05:11:25.451Z,12.60
2018-09-17T05:13:53.643Z,12.70
2018-09-17T05:16:21.865Z,12.70
2018-09-17T05:18:50.068Z,12.70
2018-09-17T05:21:18.275Z,12.70
2018-09-17T05:23:46.548Z,12.70
2018-09-17T05:26:14.811Z,12.70
2018-09-17T05:28:43.015Z,12.70
2018-09-17T05:31:11.336Z,12.70
2018-09-17T05:33:39.553Z,12.80
2018-09-17T05:36:07.793Z,12.80
2018-09-17T05:38:35.978Z,12.80
2018-09-17T05:41:04.167Z,12.80
2018-09-17T05:43:32.373Z,12.90
2018-09-17T05:46:00.672Z,12.90
2018-09-17T05:48:29.031Z,13.00
2018-09-17T05:50:57.246Z,13.00
2018-09-17T05:53:26.273Z,13.00
2018-09-17T05:55:54.453Z,13.10
2018-09-17T05:58:22.642Z,13.10
2018-09-17T06:00:50.831Z,13.00
2018-09-17T06:03:19.032Z,13.10
2018-09-17T06:05:47.384Z,13.00
2018-09-17T06:08:15.435Z,13.00
2018-09-17T06:10:43.658Z,13.00
2018-09-17T06:13:11.939Z,13.10
2018-09-17T06:15:40.151Z,13.20
2018-09-17T06:18:08.367Z,13.30
2018-09-17T06:20:36.593Z,13.40
2018-09-17T06:23:04.877Z,13.40
2018-09-17T06:25:33.085Z,13.50
2018-09-17T06:28:01.336Z,13.50
2018-09-17T06:30:29.484Z,13.50
2018-09-17T06:32:57.976Z,13.60
2018-09-17T06:35:26.302Z,13.70
2018-09-17T06:37:54.509Z,13.70
2018-09-17T06:40:22.697Z,13.80
2018-09-17T06:42:50.866Z,13.70
2018-09-17T06:45:19.043Z,13.70
2018-09-17T06:47:47.245Z,13.70
2018-09-17T06:50:15.420Z,13.80
2018-09-17T06:52:43.628Z,13.80
2018-09-17T06:55:11.809Z,13.90
2018-09-17T06:57:40.007Z,14.00
2018-09-17T07:00:08.215Z,14.10
2018-09-17T07:02:36.397Z,14.20
2018-09-17T07:05:05.057Z,14.30
2018-09-17T07:07:33.219Z,14.40
2018-09-17T07:10:01.433Z,14.50
2018-09-17T07:12:29.653Z,14.60
2018-09-17T07:14:57.884Z,14.70
2018-09-17T07:17:26.088Z,14.70
2018-09-17T07:19:54.299Z,14.80
2018-09-17T07:22:22.509Z,14.80
2018-09-17T07:24:50.678Z,14.90
2018-09-17T07:27:18.871Z,15.00
2018-09-17T07:29:47.936Z,15.10
2018-09-17T07:32:16.237Z,15.20
2018-09-17T07:34:44.446Z,15.40
2018-09-17T07:37:12.607Z,15.60
2018-09-17T07:39:40.794Z,15.70
2018-09-17T07:42:09.047Z,15.80
2018-09-17T07:44:37.182Z,16.00
2018-09-17T07:47:05.628Z,16.10
2018-09-17T07:49:33.825Z,16.30
2018-09-17T07:52:02.003Z,16.50
2018-09-17T07:54:30.237Z,16.70
2018-09-17T07:56:58.609Z,16.90
2018-09-17T07:59:26.834Z,17.10
2018-09-17T08:01:55.045Z,17.30
2018-09-17T08:04:23.340Z,17.40
2018-09-17T08:06:51.459Z,17.70
2018-09-17T08:09:19.651Z,17.80
2018-09-17T08:11:47.863Z,18.00
2018-09-17T08:14:16.095Z,18.00
2018-09-17T08:16:44.323Z,18.20
2018-09-17T08:19:12.534Z,18.40
2018-09-17T08:21:41.030Z,18.60
2018-09-17T08:24:09.227Z,18.60
2018-09-17T08:26:37.413Z,18.70
2018-09-17T08:29:05.939Z,18.80
2018-09-17T08:31:34.115Z,19.00
2018-09-17T08:34:02.286Z,19.10
2018-09-17T08:36:30.479Z,19.30
2018-09-17T08:38:58.890Z,19.30
2018-09-17T08:41:27.114Z,19.50
2018-09-17T08:43:55.327Z,19.60
2018-09-17T08:46:23.524Z,19.60
2018-09-17T08:48:51.727Z,19.70
2018-09-17T08:51:19.925Z,19.90
2018-09-17T08:53:48.133Z,19.90
2018-09-17T08:56:20.434Z,19.90
2018-09-17T08:58:54.042Z,20.00
2018-09-17T09:01:27.715Z,20.10
2018-09-17T09:04:01.533Z,20.20
2018-09-17T09:07:33.318Z,20.20
2018-09-17T09:10:07.079Z,20.30
2018-09-17T09:12:39.090Z,20.40
2018-09-17T09:15:12.804Z,20.40
2018-09-17T09:17:41.023Z,20.50
2018-09-17T09:20:09.343Z,20.50
2018-09-17T09:22:37.626Z,20.70
2018-09-17T09:25:06.651Z,20.70
2018-09-17T09:27:34.825Z,20.70
2018-09-17T09:30:03.148Z,20.80
2018-09-17T09:32:31.339Z,20.90
2018-09-17T09:34:59.508Z,21.00
2018-09-17T09:37:27.723Z,21.20
2018-09-17T09:39:56.343Z,21.20
2018-09-17T09:42:24.562Z,21.30
2018-09-17T09:44:52.751Z,21.40
2018-09-17T09:47:20.909Z,21.60
2018-09-17T09:49:49.169Z,21.60
2018-09-17T09:52:17.327Z,21.80
2018-09-17T09:54:45.522Z,21.90
2018-09-17T09:57:13.714Z,21.90
2018-09-17T09:59:41.929Z,22.00
2018-09-17T10:02:15.458Z,22.00
2018-09-17T10:04:43.638Z,22.10
2018-09-17T10:07:11.822Z,22.20
2018-09-17T10:09:45.478Z,22.30
2018-09-17T10:12:19.096Z,22.30
2018-09-17T10:14:53.321Z,22.40
2018-09-17T10:17:27.029Z,22.50
2018-09-17T10:19:55.242Z,22.60
2018-09-17T10:22:23.441Z,22.60
2018-09-17T10:24:51.635Z,22.70
2018-09-17T10:27:19.850Z,22.90
2018-09-17T10:29:48.121Z,23.00
2018-09-17T10:32:16.279Z,23.10
2018-09-17T10:34:44.500Z,23.10
2018-09-17T10:37:12.702Z,23.20
2018-09-17T10:39:41.108Z,23.10
2018-09-17T10:42:09.282Z,23.30
2018-09-17T10:44:37.513Z,23.40
2018-09-17T10:47:05.743Z,23.50
2018-09-17T10:49:33.915Z,23.50
2018-09-17T10:52:02.116Z,23.60
2018-09-17T10:54:30.302Z,23.80
2018-09-17T10:56:58.479Z,23.90
2018-09-17T10:59:26.722Z,23.90
2018-09-17T11:01:54.910Z,23.90
2018-09-17T11:04:23.109Z,23.90
2018-09-17T11:06:51.293Z,24.00
2018-09-17T11:09:19.469Z,24.00
2018-09-17T11:11:47.681Z,24.20
2018-09-17T11:14:15.894Z,24.40
2018-09-17T11:16:44.083Z,24.80
2018-09-17T11:19:12.294Z,25.40
2018-09-17T11:21:40.645Z,25.90
2018-09-17T11:24:08.847Z,26.50
2018-09-17T11:26:37.062Z,27.20
2018-09-17T11:29:05.595Z,28.30
2018-09-17T11:31:33.846Z,28.80
2018-09-17T11:34:01.969Z,29.30
2018-09-17T11:36:30.109Z,29.40
2018-09-17T11:38:58.310Z,30.00
2018-09-17T11:41:26.520Z,30.30
2018-09-17T11:43:54.793Z,30.70
2018-09-17T11:46:22.983Z,31.20
2018-09-17T11:48:51.148Z,31.40
2018-09-17T11:51:19.362Z,31.50
2018-09-17T11:53:47.593Z,31.90
2018-09-17T11:56:15.752Z,32.30
2018-09-17T11:58:44.802Z,32.20
2018-09-17T12:01:18.524Z,32.50
2018-09-17T12:03:51.944Z,32.30
2018-09-17T12:07:29.766Z,32.10
2018-09-17T12:09:58.248Z,32.70
2018-09-17T12:12:26.422Z,32.90
2018-09-17T12:14:54.629Z,33.50
2018-09-17T12:17:22.841Z,33.60
2018-09-17T12:19:51.039Z,33.50
2018-09-17T12:22:19.245Z,33.90
2018-09-17T12:24:47.411Z,33.70
2018-09-17T12:27:15.577Z,33.50
2018-09-17T12:29:43.743Z,33.70
2018-09-17T12:32:11.963Z,33.70
2018-09-17T12:34:40.177Z,33.90
2018-09-17T12:37:08.384Z,34.40
2018-09-17T12:39:36.579Z,34.70
2018-09-17T12:42:04.761Z,35.20
2018-09-17T12:44:32.983Z,35.00
2018-09-17T12:47:01.165Z,35.70
2018-09-17T12:49:29.367Z,36.50
2018-09-17T12:51:57.598Z,36.90
2018-09-17T12:54:25.800Z,37.40
2018-09-17T12:56:54.014Z,37.70
2018-09-17T12:59:22.174Z,38.00
2018-09-17T13:01:50.370Z,37.80
2018-09-17T13:04:18.574Z,38.00
2018-09-17T13:06:46.774Z,38.10
2018-09-17T13:09:14.969Z,37.40
2018-09-17T13:11:43.139Z,37.60
2018-09-17T13:14:11.423Z,38.10
2018-09-17T13:16:40.268Z,38.10
2018-09-17T13:19:10.311Z,38.30
2018-09-17T13:21:38.499Z,38.80
2018-09-17T13:24:07.983Z,39.40
2018-09-17T13:26:36.815Z,39.80
2018-09-17T13:29:05.042Z,39.00
2018-09-17T13:31:33.505Z,39.50
2018-09-17T13:34:01.714Z,40.10
2018-09-17T13:36:30.601Z,40.40
2018-09-17T13:38:59.094Z,40.70
2018-09-17T13:41:27.366Z,40.60
2018-09-17T13:43:55.591Z,39.80
2018-09-17T13:46:23.813Z,39.60
2018-09-17T13:48:52.044Z,39.40
2018-09-17T13:51:20.270Z,39.60
2018-09-17T13:53:48.557Z,39.50
2018-09-17T13:56:16.761Z,39.50
2018-09-17T13:58:44.986Z,39.60
2018-09-17T14:01:13.147Z,39.50
2018-09-17T14:03:41.353Z,39.40
2018-09-17T14:06:09.591Z,39.10
2018-09-17T14:08:37.813Z,38.90
2018-09-17T14:11:06.169Z,38.40
2018-09-17T14:13:34.361Z,38.30
2018-09-17T14:16:07.922Z,38.30
2018-09-17T14:18:36.521Z,38.50
2018-09-17T14:21:04.746Z,39.10
2018-09-17T14:23:32.913Z,39.60
2018-09-17T14:26:01.213Z,39.90
2018-09-17T14:28:29.387Z,40.60
2018-09-17T14:30:57.629Z,41.00
2018-09-17T14:33:31.313Z,41.60
2018-09-17T14:35:59.471Z,41.80
2018-09-17T14:38:27.650Z,42.20
2018-09-17T14:40:56.001Z,41.80
2018-09-17T14:43:24.201Z,41.70
2018-09-17T14:45:52.371Z,41.60
2018-09-17T14:48:20.544Z,42.00
2018-09-17T14:50:48.773Z,42.00
2018-09-17T14:53:17.033Z,42.50
2018-09-17T14:55:45.459Z,42.60
2018-09-17T14:58:14.176Z,42.70
2018-09-17T15:00:42.325Z,43.20
2018-09-17T15:03:10.712Z,43.80
2018-09-17T15:05:39.449Z,44.90
2018-09-17T15:08:08.687Z,45.60
2018-09-17T15:10:36.731Z,45.70
2018-09-17T15:13:04.904Z,45.80
2018-09-17T15:15:33.156Z,45.20
2018-09-17T15:18:01.308Z,45.10
2018-09-17T15:20:29.732Z,44.90
2018-09-17T15:22:57.807Z,44.90
2018-09-17T15:25:26.049Z,45.10
2018-09-17T15:27:54.313Z,45.30
2018-09-17T15:30:22.495Z,45.30
2018-09-17T15:32:50.812Z,44.30
2018-09-17T15:35:19.031Z,42.90
2018-09-17T15:37:47.275Z,41.90
2018-09-17T15:40:15.468Z,41.00
2018-09-17T15:42:43.619Z,40.30
2018-09-17T15:45:11.939Z,39.40
2018-09-17T15:47:40.254Z,38.90
2018-09-17T15:50:08.489Z,38.40
2018-09-17T15:52:36.661Z,37.90
2018-09-17T15:55:04.860Z,37.50
2018-09-17T15:57:33.100Z,37.30
2018-09-17T16:02:52.999Z,36.70
2018-09-17T16:05:21.177Z,36.60
2018-09-17T16:07:49.369Z,36.60
2018-09-17T16:10:17.605Z,36.50
2018-09-17T16:12:45.851Z,36.60
2018-09-17T16:15:14.030Z,36.50
2018-09-17T16:17:42.253Z,36.50
2018-09-17T16:20:10.481Z,36.50
2018-09-17T16:22:38.679Z,36.40
2018-09-17T16:25:06.861Z,36.30
2018-09-17T16:27:35.059Z,36.20
2018-09-17T16:30:03.489Z,36.10
2018-09-17T16:32:31.694Z,35.90
2018-09-17T16:34:59.918Z,35.70
2018-09-17T16:37:28.205Z,35.50
2018-09-17T16:39:56.435Z,35.30
2018-09-17T16:42:24.622Z,35.20
2018-09-17T16:44:52.815Z,34.90
2018-09-17T16:47:20.994Z,34.60
2018-09-17T16:49:49.159Z,34.30
2018-09-17T16:52:17.382Z,33.90
2018-09-17T16:54:45.566Z,33.50
2018-09-17T16:57:13.814Z,33.20
2018-09-17T16:59:42.069Z,32.80
2018-09-17T17:02:10.250Z,32.50
2018-09-17T17:04:38.555Z,32.20
2018-09-17T17:07:06.805Z,31.90
2018-09-17T17:09:35.037Z,31.50
2018-09-17T17:12:03.559Z,31.20
2018-09-17T17:14:32.512Z,30.90
2018-09-17T17:17:00.737Z,30.50
2018-09-17T17:19:28.934Z,30.20
2018-09-17T17:21:57.217Z,30.00
2018-09-17T17:24:25.362Z,29.70
2018-09-17T17:26:53.573Z,29.40
2018-09-17T17:29:21.857Z,29.20
2018-09-17T17:31:50.086Z,28.90
2018-09-17T17:34:18.330Z,28.60
2018-09-17T17:36:46.520Z,28.40
2018-09-17T17:39:14.777Z,28.10
2018-09-17T17:41:42.915Z,27.90
2018-09-17T17:44:11.102Z,27.70
2018-09-17T17:46:39.301Z,27.50
2018-09-17T17:49:07.475Z,27.30
2018-09-17T17:51:35.670Z,27.10
2018-09-17T17:54:03.863Z,26.90
2018-09-17T17:56:32.070Z,26.70
2018-09-17T17:59:00.266Z,26.60
2018-09-17T18:01:28.734Z,26.50
2018-09-17T18:03:57.067Z,26.30
2018-09-17T18:06:25.223Z,26.20
2018-09-17T18:08:53.515Z,26.00
2018-09-17T18:11:22.335Z,25.90
2018-09-17T18:13:50.533Z,25.70
2018-09-17T18:16:19.033Z,25.60
2018-09-17T18:18:47.305Z,25.50
2018-09-17T18:21:15.561Z,25.30
2018-09-17T18:23:43.670Z,25.30
2018-09-17T18:26:11.882Z,25.20
2018-09-17T18:28:40.088Z,25.10
2018-09-17T18:31:08.657Z,25.00
2018-09-17T18:33:37.146Z,24.90
2018-09-17T18:36:05.327Z,24.80
2018-09-17T18:38:33.579Z,24.70
2018-09-17T18:41:01.882Z,24.60
2018-09-17T18:43:30.069Z,24.50
2018-09-17T18:45:58.344Z,24.40
2018-09-17T18:48:26.595Z,24.30
2018-09-17T18:50:54.901Z,24.20
2018-09-17T18:53:23.045Z,24.20
2018-09-17T18:55:51.248Z,24.10
2018-09-17T18:58:19.427Z,24.00
2018-09-17T19:00:47.709Z,24.00
2018-09-17T19:03:16.435Z,23.90
2018-09-17T19:05:44.732Z,23.80
2018-09-17T19:08:12.929Z,23.80
2018-09-17T19:10:41.276Z,23.70
2018-09-17T19:13:09.880Z,23.60
2018-09-17T19:15:43.777Z,23.60
2018-09-17T19:18:17.721Z,23.50
2018-09-17T19:20:46.948Z,23.40
2018-09-17T19:23:20.626Z,23.30
2018-09-17T19:25:48.919Z,23.30
2018-09-17T19:28:22.627Z,23.20
2018-09-17T19:30:51.442Z,23.10
2018-09-17T19:33:19.708Z,23.00
2018-09-17T19:35:47.988Z,22.90
2018-09-17T19:38:21.690Z,22.90
2018-09-17T19:40:49.797Z,22.80
2018-09-17T19:43:18.010Z,22.80
2018-09-17T19:45:51.652Z,22.70
2018-09-17T19:48:20.016Z,22.60
2018-09-17T19:50:53.513Z,22.60
2018-09-17T19:53:21.737Z,22.50
2018-09-17T19:55:49.975Z,22.40
2018-09-17T19:58:23.491Z,22.40
2018-09-17T20:00:52.130Z,22.30
2018-09-17T20:03:20.290Z,22.20
2018-09-17T20:05:54.027Z,22.20
2018-09-17T20:08:22.358Z,22.10
2018-09-17T20:10:50.568Z,22.10
2018-09-17T20:13:18.755Z,22.00
2018-09-17T20:15:47.055Z,22.00
2018-09-17T20:18:15.270Z,21.90
2018-09-17T20:20:43.457Z,21.90
2018-09-17T20:23:11.735Z,21.80
2018-09-17T20:25:39.853Z,21.80
2018-09-17T20:28:08.036Z,21.70
2018-09-17T20:30:36.218Z,21.70
2018-09-17T20:33:04.476Z,21.60
2018-09-17T20:35:32.643Z,21.60
2018-09-17T20:38:00.972Z,21.50
2018-09-17T20:40:29.191Z,21.50
2018-09-17T20:42:57.423Z,21.40
2018-09-17T20:45:25.627Z,21.40
2018-09-17T20:47:53.838Z,21.30
2018-09-17T20:50:25.105Z,21.30
2018-09-17T20:52:53.532Z,21.20
2018-09-17T20:55:21.903Z,21.20
2018-09-17T20:57:50.655Z,21.10
2018-09-17T21:00:18.878Z,21.10
2018-09-17T21:02:47.087Z,21.00
2018-09-17T21:05:15.587Z,21.00
2018-09-17T21:07:44.839Z,20.90
2018-09-17T21:10:13.046Z,20.90
2018-09-17T21:12:41.348Z,20.80
2018-09-17T21:15:10.306Z,20.70
2018-09-17T21:17:38.528Z,20.70
2018-09-17T21:20:06.729Z,20.60
2018-09-17T21:22:34.937Z,20.60
2018-09-17T21:27:55.891Z,20.50
2018-09-17T21:30:24.091Z,20.40
2018-09-17T21:32:52.271Z,20.40
2018-09-17T21:35:20.541Z,20.30
2018-09-17T21:37:48.677Z,20.30
2018-09-17T21:40:16.869Z,20.20
2018-09-17T21:42:45.130Z,20.20
2018-09-17T21:45:13.247Z,20.10
2018-09-17T21:47:41.464Z,20.10
2018-09-17T21:50:10.472Z,20.10
2018-09-17T21:52:38.713Z,20.00
2018-09-17T21:55:08.394Z,19.90
2018-09-17T21:57:39.184Z,19.90
2018-09-17T22:00:08.442Z,19.90
2018-09-17T22:02:36.700Z,19.80
2018-09-17T22:05:05.740Z,19.80
2018-09-17T22:07:34.412Z,19.70
2018-09-17T22:10:03.038Z,19.70
2018-09-17T22:12:31.819Z,19.70
2018-09-17T22:15:00.960Z,19.70
2018-09-17T22:17:30.188Z,19.70
2018-09-17T22:19:58.866Z,19.60
2018-09-17T22:22:28.370Z,19.60
2018-09-17T22:24:57.423Z,19.60
2018-09-17T22:27:27.443Z,19.50
2018-09-17T22:29:56.644Z,19.50
2018-09-17T22:32:25.658Z,19.50
2018-09-17T22:34:54.966Z,19.50
2018-09-17T22:37:25.550Z,19.40
2018-09-17T22:39:55.125Z,19.40
2018-09-17T22:42:25.750Z,19.40
2018-09-17T22:44:54.938Z,19.40
2018-09-17T22:47:24.737Z,19.30
2018-09-17T22:49:54.418Z,19.30
2018-09-17T22:52:24.042Z,19.30
2018-09-17T22:54:53.675Z,19.30
2018-09-17T22:57:24.795Z,19.30
2018-09-17T22:59:55.732Z,19.40
2018-09-17T23:02:26.745Z,19.40
2018-09-17T23:04:56.937Z,19.30
2018-09-17T23:07:27.116Z,19.40
2018-09-17T23:09:56.963Z,19.40
2018-09-17T23:12:29.025Z,19.40
2018-09-17T23:14:58.118Z,19.40
2018-09-17T23:17:27.504Z,19.40
2018-09-17T23:19:57.021Z,19.40
2018-09-17T23:22:27.280Z,19.40
2018-09-17T23:24:58.596Z,19.30
2018-09-17T23:27:27.650Z,19.30
2018-09-17T23:29:57.571Z,19.30
2018-09-17T23:32:27.327Z,19.20
2018-09-17T23:34:57.215Z,19.20
2018-09-17T23:37:27.673Z,19.20
2018-09-17T23:39:57.219Z,19.20
2018-09-17T23:42:27.358Z,19.20
2018-09-17T23:44:56.769Z,19.20
2018-09-17T23:47:27.648Z,19.20
2018-09-17T23:49:57.803Z,19.10
2018-09-17T23:52:27.452Z,19.10
2018-09-17T23:54:57.037Z,19.10
2018-09-17T23:57:27.748Z,19.00
2018-09-17T23:59:57.649Z,19.00
